Hisle, Kentucky
Current Conditions -  °F | °C
As of 4:35 AM on Sunday 23 Nov 2014 (Local Time) from KI39 Reporting Station
Overcast Overcast  
Wind Chill: 50°   Ceiling: 4300
Heat Index: 50°   Visibility: 10mi
Dew Point: 34°   Wind: 0mph
Humidity: 54%   Direction: NA
Pressure: 30.05"   Gusts: NA
Location:  37.4446°N, 84.0227°W
Report Text: KI39 230935Z AUTO 00000KT 10SM BKN043 BKN050 OVC100 10/01 A3005 RMK AO2
Loading
Personal Weather Stations






























Interactive Weather Map New forecast layout! Learn more

10-Day Weather Forecast

Advertisements
Track Severe Weather on mobile